createdAt,value
2023-01-17T09:34:22.906Z,33.50
2023-01-17T09:35:22.956Z,33.18
2023-01-17T09:36:22.914Z,32.14
2023-01-17T09:37:22.967Z,31.88
2023-01-17T09:38:23.100Z,31.54
2023-01-17T13:26:15.204Z,26.79
2023-01-17T13:27:15.222Z,25.44
2023-01-17T13:28:15.258Z,24.80
2023-01-17T13:29:15.108Z,26.22
2023-01-17T13:30:15.093Z,25.92
2023-01-17T13:31:15.116Z,24.80
2023-01-17T13:32:15.082Z,25.00
2023-01-17T13:33:15.203Z,24.89
2023-01-17T13:34:15.273Z,24.92
2023-01-17T13:35:15.192Z,24.94
2023-01-17T13:36:15.163Z,24.92
2023-01-17T13:37:15.226Z,24.65
2023-01-17T13:38:15.041Z,24.38
2023-01-17T13:39:15.357Z,24.46
2023-01-17T13:40:15.031Z,24.38
2023-01-17T13:41:15.142Z,24.32
2023-01-17T13:42:15.137Z,24.34
2023-01-17T13:43:15.858Z,24.40
2023-01-17T13:44:15.166Z,24.80
2023-01-17T13:45:15.158Z,24.19
2023-01-17T13:46:15.137Z,24.17
2023-01-17T13:47:15.126Z,23.97
2023-01-17T13:48:15.209Z,24.01
2023-01-17T13:49:15.116Z,23.94
2023-01-17T13:50:15.156Z,24.00
2023-01-17T13:51:15.382Z,24.28
2023-01-17T13:52:15.416Z,24.44
2023-01-17T13:53:15.490Z,24.65
2023-01-17T13:54:15.467Z,24.87
2023-01-17T13:55:15.394Z,35.06
2023-01-17T13:56:15.622Z,25.83
2023-01-17T13:57:15.618Z,24.68
2023-01-17T13:58:15.498Z,25.12
2023-01-17T13:59:15.748Z,28.02
2023-01-17T14:00:15.850Z,22.89
2023-01-17T14:01:15.929Z,22.59
2023-01-17T14:02:15.887Z,22.32
2023-01-17T14:03:16.003Z,21.95
2023-01-17T14:04:16.008Z,21.86
2023-01-17T14:05:16.062Z,21.73
2023-01-17T14:06:16.000Z,21.86
2023-01-17T14:07:16.024Z,23.65
2023-01-17T14:08:16.107Z,22.73
2023-01-17T14:09:16.263Z,22.67
2023-01-17T14:10:16.272Z,23.22
2023-01-17T14:11:16.243Z,23.46
2023-01-17T14:12:16.323Z,22.99
2023-01-17T14:13:16.270Z,23.24
2023-01-17T14:14:16.139Z,23.70
2023-01-17T14:15:16.170Z,24.22
2023-01-17T14:16:16.404Z,24.12
2023-01-17T14:17:16.437Z,24.41
2023-01-17T14:18:16.348Z,24.41
2023-01-17T14:19:16.440Z,24.77
2023-01-17T14:20:16.304Z,24.82
2023-01-17T14:21:16.505Z,24.84
2023-01-17T14:22:16.368Z,24.97
2023-01-17T14:23:16.584Z,25.34
2023-01-17T14:24:16.494Z,25.30
2023-01-17T14:25:16.706Z,25.22
2023-01-17T14:26:16.432Z,25.29
2023-01-17T14:27:16.557Z,24.97
2023-01-17T14:28:16.612Z,25.30
2023-01-17T14:30:26.320Z,25.49
2023-01-17T14:31:26.629Z,25.60
2023-01-17T14:32:26.834Z,25.74
2023-01-17T14:33:28.135Z,25.62
2023-01-17T14:34:27.627Z,25.49
2023-01-17T14:35:29.520Z,25.56
2023-01-17T14:36:29.522Z,25.50
2023-01-17T14:37:26.152Z,25.50
2023-01-17T14:38:27.300Z,32.45
2023-01-17T14:39:26.819Z,25.74
2023-01-17T14:40:26.584Z,25.72
2023-01-17T14:41:27.015Z,25.74
2023-01-17T14:42:27.307Z,25.60
2023-01-17T14:43:34.704Z,25.76
2023-01-17T14:44:26.922Z,25.58
2023-01-17T16:16:39.569Z,38.28
2023-01-17T16:16:49.503Z,38.16
2023-01-17T16:16:59.707Z,38.04
2023-01-17T16:17:09.710Z,37.85
2023-01-17T16:17:19.630Z,41.19
2023-01-17T16:17:29.647Z,40.13
2023-01-17T16:17:39.617Z,38.33
2023-01-17T16:17:50.067Z,39.22
2023-01-17T16:18:22.323Z,38.55
2023-01-17T16:18:52.800Z,37.08
2023-01-17T16:19:02.773Z,37.76
2023-01-17T16:19:12.994Z,36.83
2023-01-17T16:19:23.017Z,36.83
